createdAt,value
2022-12-13T00:00:53.827Z,39.58
2022-12-13T00:01:59.592Z,39.30
2022-12-13T00:03:01.881Z,42.97
2022-12-13T00:04:08.438Z,39.13
2022-12-13T00:05:11.266Z,40.85
2022-12-13T00:06:16.546Z,40.95
2022-12-13T00:07:21.474Z,39.63
2022-12-13T00:08:23.745Z,40.90
2022-12-13T00:09:28.601Z,41.33
2022-12-13T00:10:31.093Z,40.28
2022-12-13T00:11:36.160Z,40.95
2022-12-13T00:12:38.542Z,39.97
2022-12-13T00:13:44.510Z,39.00
2022-12-13T00:14:51.850Z,38.90
2022-12-13T00:15:58.279Z,41.05
2022-12-13T00:17:06.707Z,37.83
2022-12-13T00:18:09.006Z,37.10
2022-12-13T00:19:17.319Z,39.38
2022-12-13T00:20:19.695Z,37.10
2022-12-13T00:21:26.487Z,38.45
2022-12-13T00:22:28.822Z,39.55
2022-12-13T00:23:34.704Z,38.50
2022-12-13T00:24:40.212Z,38.97
2022-12-13T00:25:49.290Z,40.13
2022-12-13T00:26:57.936Z,39.45
2022-12-13T00:28:00.679Z,39.30
2022-12-13T00:29:07.861Z,40.70
2022-12-13T00:30:13.535Z,38.22
2022-12-13T00:31:53.526Z,38.75
2022-12-13T00:32:43.921Z,40.25
2022-12-13T00:33:46.297Z,40.72
2022-12-13T00:34:51.101Z,40.50
2022-12-13T00:35:53.704Z,40.38
2022-12-13T00:37:04.954Z,41.47
2022-12-13T00:38:07.341Z,38.67
2022-12-13T00:39:14.140Z,39.08
2022-12-13T00:40:16.369Z,37.38
2022-12-13T00:41:23.477Z,38.03
2022-12-13T00:42:28.326Z,42.75
2022-12-13T00:43:30.611Z,40.80
2022-12-13T00:44:35.807Z,37.67
2022-12-13T00:45:41.256Z,40.58
2022-12-13T00:46:46.478Z,40.67
2022-12-13T00:47:51.290Z,41.53
2022-12-13T00:48:55.072Z,38.88
2022-12-13T00:50:00.235Z,40.90
2022-12-13T00:51:06.975Z,37.40
2022-12-13T00:52:11.852Z,38.40
2022-12-13T00:53:14.188Z,40.42
2022-12-13T00:54:19.690Z,37.03
2022-12-13T00:55:24.408Z,37.60
2022-12-13T00:56:29.198Z,40.00
2022-12-13T00:57:34.160Z,38.55
2022-12-13T00:58:50.173Z,40.17
2022-12-13T00:59:56.914Z,37.20
2022-12-13T01:01:29.274Z,38.08
2022-12-13T01:02:47.764Z,38.35
2022-12-13T01:04:01.938Z,36.03
2022-12-13T01:05:11.354Z,38.50
2022-12-13T01:06:34.563Z,38.15
2022-12-13T01:07:47.721Z,35.30
2022-12-13T01:08:58.578Z,38.45
2022-12-13T01:10:07.512Z,37.97
2022-12-13T01:11:24.594Z,36.92
2022-12-13T01:12:38.997Z,35.53
2022-12-13T01:13:42.303Z,35.35
2022-12-13T01:14:56.285Z,35.95
2022-12-13T01:16:19.056Z,35.65
2022-12-13T01:19:00.883Z,35.13
2022-12-13T01:20:21.793Z,33.92
2022-12-13T01:21:38.644Z,34.83
2022-12-13T01:22:46.161Z,34.72
2022-12-13T01:24:16.724Z,35.03
2022-12-13T01:25:30.582Z,34.28
2022-12-13T01:26:58.640Z,34.63
2022-12-13T01:28:11.993Z,36.10
2022-12-13T01:29:25.938Z,35.53
2022-12-13T01:30:36.032Z,35.53
2022-12-13T01:31:47.756Z,35.97
2022-12-13T01:32:57.458Z,35.38
2022-12-13T01:34:10.841Z,35.83
2022-12-13T01:35:21.775Z,36.70
2022-12-13T01:36:29.846Z,37.72
2022-12-13T01:39:03.767Z,37.90
2022-12-13T01:40:27.663Z,37.22
2022-12-13T01:41:40.504Z,35.17
2022-12-13T01:42:52.149Z,37.75
2022-12-13T01:44:03.785Z,38.42
2022-12-13T01:45:39.882Z,36.92
2022-12-13T01:46:55.046Z,36.92
2022-12-13T01:48:19.170Z,41.17
2022-12-13T01:49:29.290Z,36.85
2022-12-13T01:50:47.751Z,38.40
2022-12-13T01:52:06.558Z,36.45
2022-12-13T01:53:28.311Z,39.17
2022-12-13T01:56:07.946Z,36.78
2022-12-13T01:57:18.311Z,38.90
2022-12-13T01:58:33.865Z,40.63
2022-12-13T01:59:40.402Z,38.17
2022-12-13T02:00:56.771Z,40.35
2022-12-13T02:02:10.461Z,40.08
2022-12-13T02:03:25.941Z,40.25
2022-12-13T02:04:44.238Z,41.45
2022-12-13T02:06:00.836Z,40.72
2022-12-13T02:07:04.028Z,40.75
2022-12-13T02:08:19.858Z,40.92
2022-12-13T02:09:39.335Z,40.78
2022-12-13T02:11:15.449Z,40.00
2022-12-13T02:12:29.909Z,39.45
2022-12-13T02:13:47.220Z,38.75
2022-12-13T02:14:53.769Z,39.75
2022-12-13T02:16:21.959Z,40.08
2022-12-13T02:17:34.453Z,37.75
2022-12-13T02:19:12.112Z,36.05
2022-12-13T02:20:48.009Z,37.63
2022-12-13T02:22:06.601Z,38.00
2022-12-13T02:23:46.491Z,34.85
2022-12-13T02:25:29.490Z,36.78
2022-12-13T02:26:53.421Z,36.45
2022-12-13T02:28:30.614Z,34.92
2022-12-13T02:30:02.912Z,35.92
2022-12-13T02:31:27.078Z,34.40
2022-12-13T02:32:41.788Z,36.58
2022-12-13T02:34:13.664Z,34.20
2022-12-13T02:35:40.998Z,35.10
2022-12-13T02:37:17.607Z,35.05
2022-12-13T02:38:38.597Z,35.58
2022-12-13T02:39:50.489Z,34.90
2022-12-13T02:41:05.563Z,35.47
2022-12-13T02:42:31.743Z,34.08
2022-12-13T02:43:45.709Z,32.35
2022-12-13T02:45:01.867Z,33.40
2022-12-13T02:46:12.876Z,34.17
2022-12-13T02:47:30.134Z,35.22
2022-12-13T02:48:42.242Z,32.60
2022-12-13T02:50:00.280Z,33.25
2022-12-13T02:51:10.826Z,32.78
2022-12-13T02:52:22.423Z,30.27
2022-12-13T02:53:27.582Z,32.22
2022-12-13T02:54:37.120Z,31.02
2022-12-13T02:55:45.562Z,31.73
2022-12-13T02:57:01.369Z,29.90
2022-12-13T02:58:21.651Z,29.65
2022-12-13T02:59:27.411Z,28.02
2022-12-13T03:00:54.573Z,29.95
2022-12-13T03:02:30.784Z,27.88
2022-12-13T03:03:51.353Z,29.35
2022-12-13T03:05:35.907Z,30.33
2022-12-13T03:06:58.386Z,28.48
2022-12-13T03:08:26.114Z,30.30
2022-12-13T03:09:48.550Z,29.42
2022-12-13T03:11:00.176Z,30.58
2022-12-13T03:12:39.188Z,30.45
2022-12-13T03:13:54.358Z,28.52
2022-12-13T03:15:04.003Z,28.92
2022-12-13T03:16:23.007Z,28.83
2022-12-13T03:17:37.096Z,26.98
2022-12-13T03:18:42.194Z,29.48
2022-12-13T03:19:47.735Z,26.95
2022-12-13T03:20:57.609Z,26.58
2022-12-13T03:22:11.958Z,27.75
2022-12-13T03:23:21.618Z,25.35
2022-12-13T03:24:30.217Z,24.60
2022-12-13T03:25:34.934Z,24.05
2022-12-13T03:26:51.843Z,26.38
2022-12-13T03:28:15.678Z,25.25
2022-12-13T03:29:24.793Z,24.98
2022-12-13T03:30:29.359Z,25.08
2022-12-13T03:31:34.689Z,24.88
2022-12-13T03:32:40.092Z,25.02
2022-12-13T03:33:49.343Z,24.52
2022-12-13T03:35:00.589Z,25.20
2022-12-13T03:36:15.557Z,24.70
2022-12-13T03:37:23.633Z,26.58
2022-12-13T03:38:26.852Z,24.95
2022-12-13T03:39:31.975Z,26.05
2022-12-13T03:40:37.886Z,26.17
2022-12-13T03:41:45.405Z,28.05
2022-12-13T03:42:48.617Z,25.48
2022-12-13T03:43:54.030Z,25.40
2022-12-13T03:44:56.394Z,25.05
2022-12-13T03:46:01.507Z,25.83
2022-12-13T03:47:09.743Z,26.77
2022-12-13T03:48:14.726Z,26.90
2022-12-13T03:49:27.326Z,24.30
2022-12-13T03:50:40.202Z,25.75
2022-12-13T03:51:45.235Z,25.23
2022-12-13T03:52:48.136Z,24.10
2022-12-13T03:53:53.172Z,26.40
2022-12-13T03:54:55.543Z,26.90
2022-12-13T03:56:01.481Z,25.38
2022-12-13T03:57:04.069Z,27.35
2022-12-13T03:58:08.956Z,25.15
2022-12-13T03:59:17.949Z,25.88
2022-12-13T04:00:20.530Z,25.98
2022-12-13T04:01:25.609Z,25.88
2022-12-13T04:02:30.497Z,24.00
2022-12-13T04:03:40.719Z,24.98
2022-12-13T04:04:43.049Z,26.33
2022-12-13T04:05:48.157Z,26.30
2022-12-13T04:06:56.224Z,25.48
2022-12-13T04:08:01.205Z,25.75
2022-12-13T04:09:06.765Z,24.85
2022-12-13T04:10:25.569Z,25.02
2022-12-13T04:11:44.210Z,24.30
2022-12-13T04:13:01.515Z,23.40
2022-12-13T04:14:09.160Z,26.08
2022-12-13T04:15:11.580Z,24.70
2022-12-13T04:16:16.578Z,26.55
2022-12-13T04:17:19.025Z,26.52
2022-12-13T04:18:24.072Z,25.60
2022-12-13T04:19:29.016Z,24.20
2022-12-13T04:20:40.554Z,24.98
2022-12-13T04:21:50.269Z,24.92
2022-12-13T04:23:09.921Z,26.00
2022-12-13T04:24:31.929Z,24.98
2022-12-13T04:26:49.707Z,25.95
2022-12-13T04:27:57.697Z,23.33
2022-12-13T04:29:06.879Z,24.75
2022-12-13T04:30:19.719Z,25.02
2022-12-13T04:31:33.316Z,25.23
2022-12-13T04:32:41.371Z,23.73
2022-12-13T04:33:50.087Z,26.63
2022-12-13T04:35:08.075Z,25.85
2022-12-13T04:36:30.896Z,25.85
2022-12-13T04:37:48.839Z,25.05
2022-12-13T04:39:22.256Z,23.75
2022-12-13T04:40:27.975Z,25.25
2022-12-13T04:41:40.310Z,26.27
2022-12-13T04:42:43.151Z,25.33
2022-12-13T04:43:53.295Z,26.92
2022-12-13T04:44:59.757Z,27.67
2022-12-13T04:46:09.693Z,26.13
2022-12-13T04:47:46.999Z,23.83
2022-12-13T04:48:53.748Z,23.35
2022-12-13T04:50:05.987Z,28.58
2022-12-13T04:51:13.036Z,25.95
2022-12-13T04:52:22.430Z,24.38
2022-12-13T04:53:29.436Z,26.70
2022-12-13T04:54:35.606Z,25.40
2022-12-13T04:55:40.608Z,25.98
2022-12-13T04:56:45.842Z,24.55
2022-12-13T04:57:48.213Z,24.95
2022-12-13T04:58:53.344Z,23.38
2022-12-13T04:59:55.776Z,23.20
2022-12-13T05:01:02.894Z,24.48
2022-12-13T05:02:09.905Z,23.75
2022-12-13T05:03:15.193Z,22.73
2022-12-13T05:04:20.441Z,23.27
2022-12-13T05:05:28.392Z,21.50
2022-12-13T05:06:31.056Z,21.73
2022-12-13T05:07:36.189Z,22.13
2022-12-13T05:08:48.275Z,25.17
2022-12-13T05:09:50.734Z,23.55
2022-12-13T05:10:57.709Z,21.30
2022-12-13T05:12:00.908Z,22.92
2022-12-13T05:13:09.221Z,24.15
2022-12-13T05:14:11.777Z,22.73
2022-12-13T05:15:17.105Z,22.65
2022-12-13T05:16:24.824Z,23.25
2022-12-13T05:17:27.203Z,21.65
2022-12-13T05:18:32.925Z,24.30
2022-12-13T05:19:35.146Z,22.13
2022-12-13T05:20:42.995Z,23.27
2022-12-13T05:21:45.361Z,23.10
2022-12-13T05:22:50.098Z,22.30
2022-12-13T05:23:52.400Z,25.35
2022-12-13T05:24:57.265Z,23.50
2022-12-13T05:26:02.473Z,22.17
2022-12-13T05:27:24.466Z,22.10
2022-12-13T05:28:30.881Z,22.40
2022-12-13T05:29:33.240Z,24.15
2022-12-13T05:30:40.445Z,21.67
2022-12-13T05:31:42.700Z,22.80
2022-12-13T05:32:47.726Z,23.17
2022-12-13T05:33:49.910Z,22.25
2022-12-13T05:34:54.675Z,24.48
2022-12-13T05:36:02.086Z,24.80
2022-12-13T05:37:07.306Z,23.10
2022-12-13T05:38:09.969Z,22.23
2022-12-13T05:39:34.861Z,25.38
2022-12-13T05:40:39.437Z,24.73
2022-12-13T05:41:46.761Z,25.77
2022-12-13T05:43:00.944Z,24.52
2022-12-13T05:44:07.116Z,24.83
2022-12-13T05:45:13.671Z,23.45
2022-12-13T05:46:24.925Z,26.60
2022-12-13T05:47:33.071Z,37.33
2022-12-13T05:48:40.454Z,26.15
2022-12-13T05:49:43.158Z,26.48
2022-12-13T05:50:51.043Z,26.48
2022-12-13T05:52:00.294Z,23.60
2022-12-13T05:53:08.871Z,21.15
2022-12-13T05:54:17.754Z,24.73
2022-12-13T05:55:26.211Z,22.98
2022-12-13T05:56:34.073Z,25.60
2022-12-13T05:57:39.242Z,25.27
2022-12-13T05:58:43.452Z,25.80
2022-12-13T05:59:48.611Z,24.67
2022-12-13T06:00:54.949Z,24.73
2022-12-13T06:02:18.291Z,23.35
2022-12-13T06:03:33.902Z,22.38
2022-12-13T06:04:42.136Z,24.33
2022-12-13T06:05:58.787Z,23.52
2022-12-13T06:07:12.285Z,22.90
2022-12-13T06:08:24.351Z,23.88
2022-12-13T06:09:39.998Z,25.85
2022-12-13T06:10:47.820Z,23.77
2022-12-13T06:12:02.395Z,25.27
2022-12-13T06:13:21.698Z,24.83
2022-12-13T06:14:30.604Z,24.42
2022-12-13T06:15:36.010Z,24.08
2022-12-13T06:16:49.758Z,24.83
2022-12-13T06:17:53.626Z,24.65
2022-12-13T06:19:04.602Z,23.48
2022-12-13T06:20:23.409Z,24.27
2022-12-13T06:21:43.971Z,25.85
2022-12-13T06:22:56.497Z,23.92
2022-12-13T06:24:01.242Z,24.10
2022-12-13T06:25:06.924Z,24.60
2022-12-13T06:26:36.450Z,25.33
2022-12-13T06:27:41.438Z,26.25
2022-12-13T06:28:48.504Z,25.67
2022-12-13T06:29:56.140Z,24.70
2022-12-13T06:31:00.871Z,26.10
2022-12-13T06:32:06.997Z,27.88
2022-12-13T06:33:11.339Z,25.48
2022-12-13T06:34:18.506Z,26.10
2022-12-13T06:35:28.914Z,25.13
2022-12-13T06:36:35.096Z,22.63
2022-12-13T06:37:42.440Z,23.00
2022-12-13T06:38:50.150Z,23.60
2022-12-13T06:39:55.086Z,23.25
2022-12-13T06:41:09.718Z,23.75
2022-12-13T06:42:21.962Z,24.92
2022-12-13T06:43:25.141Z,22.67
2022-12-13T06:44:30.232Z,23.55
2022-12-13T06:45:32.623Z,25.30
2022-12-13T06:46:40.991Z,26.48
2022-12-13T06:47:46.263Z,23.08
2022-12-13T06:48:51.128Z,22.73
2022-12-13T06:49:53.414Z,24.38
2022-12-13T06:50:58.360Z,24.50
2022-12-13T06:52:03.847Z,22.95
2022-12-13T06:53:12.527Z,23.42
2022-12-13T06:54:21.548Z,24.70
2022-12-13T06:55:27.017Z,24.58
2022-12-13T06:56:33.198Z,23.73
2022-12-13T06:57:35.652Z,23.73
2022-12-13T06:58:41.041Z,23.40
2022-12-13T06:59:45.920Z,23.38
2022-12-13T07:00:49.599Z,25.65
2022-12-13T07:01:54.834Z,25.58
2022-12-13T07:03:09.086Z,27.00
2022-12-13T07:04:29.657Z,29.60
2022-12-13T07:06:48.473Z,28.88
2022-12-13T07:08:01.480Z,29.63
2022-12-13T07:09:09.998Z,26.85
2022-12-13T07:10:21.869Z,27.95
2022-12-13T07:11:30.657Z,29.10
2022-12-13T07:12:37.946Z,28.67
2022-12-13T07:14:05.055Z,28.83
2022-12-13T07:15:17.627Z,28.27
2022-12-13T07:16:27.285Z,26.50
2022-12-13T07:17:50.604Z,28.75
2022-12-13T07:19:22.899Z,27.55
2022-12-13T07:20:29.326Z,29.90
2022-12-13T07:21:32.343Z,28.45
2022-12-13T07:22:48.467Z,31.15
2022-12-13T07:25:38.424Z,30.48
2022-12-13T07:26:43.358Z,29.73
2022-12-13T07:27:45.519Z,28.63
2022-12-13T07:28:55.426Z,29.02
2022-12-13T07:30:00.905Z,28.98
2022-12-13T07:31:07.621Z,27.98
2022-12-13T07:32:14.618Z,28.80
2022-12-13T07:33:22.203Z,26.45
2022-12-13T07:34:29.390Z,26.10
2022-12-13T07:35:36.962Z,25.25
2022-12-13T07:36:42.393Z,26.73
2022-12-13T07:37:47.265Z,25.10
2022-12-13T07:38:55.163Z,23.65
2022-12-13T07:40:03.992Z,24.73
2022-12-13T07:41:12.912Z,27.15
2022-12-13T07:42:29.829Z,25.33
2022-12-13T07:43:35.115Z,52.08
2022-12-13T07:44:39.777Z,27.00
2022-12-13T07:45:44.561Z,26.33
2022-12-13T07:46:49.286Z,23.20
2022-12-13T07:47:54.300Z,25.67
2022-12-13T07:49:01.563Z,24.25
2022-12-13T07:50:07.191Z,23.17
2022-12-13T07:51:30.153Z,22.95
2022-12-13T07:52:34.915Z,26.10
2022-12-13T07:53:39.839Z,23.58
2022-12-13T07:54:44.466Z,22.98
2022-12-13T07:55:46.590Z,37.08
2022-12-13T07:56:53.859Z,26.40
2022-12-13T07:57:58.632Z,23.38
2022-12-13T07:59:08.979Z,24.38
2022-12-13T08:00:15.215Z,24.38
2022-12-13T08:01:20.182Z,23.67
2022-12-13T08:02:25.039Z,24.25
2022-12-13T08:03:30.241Z,24.63
2022-12-13T08:04:37.920Z,25.23
2022-12-13T08:05:43.185Z,23.48
2022-12-13T08:06:48.139Z,24.27
2022-12-13T08:07:53.145Z,26.58
2022-12-13T08:08:58.860Z,27.95
2022-12-13T08:10:03.601Z,25.83
2022-12-13T08:11:11.746Z,24.42
2022-12-13T08:12:22.592Z,25.27
2022-12-13T08:13:27.772Z,25.90
2022-12-13T08:14:35.375Z,22.85
2022-12-13T08:15:43.279Z,26.65
2022-12-13T08:16:50.856Z,23.63
2022-12-13T08:18:00.946Z,25.88
2022-12-13T08:19:05.692Z,24.50
2022-12-13T08:20:09.152Z,24.98
2022-12-13T08:21:51.751Z,22.63
2022-12-13T08:22:39.359Z,23.85
2022-12-13T08:25:45.158Z,27.92
2022-12-13T08:26:47.490Z,27.02
2022-12-13T08:27:55.537Z,25.60
2022-12-13T08:29:07.647Z,25.50
2022-12-13T08:30:20.490Z,24.67
2022-12-13T08:31:33.962Z,25.08
2022-12-13T08:32:39.064Z,28.67
2022-12-13T08:33:46.989Z,32.75
2022-12-13T08:34:52.256Z,31.83
2022-12-13T08:35:54.515Z,31.00
2022-12-13T08:37:01.898Z,26.08
2022-12-13T08:38:09.677Z,25.38
2022-12-13T08:39:14.565Z,26.10
2022-12-13T08:40:19.871Z,25.17
2022-12-13T08:41:24.828Z,22.45
2022-12-13T08:42:29.692Z,26.98
2022-12-13T08:43:37.016Z,24.35
2022-12-13T08:44:41.779Z,24.13
2022-12-13T08:45:46.624Z,24.05
2022-12-13T08:46:52.451Z,23.95
2022-12-13T08:47:59.970Z,22.65
2022-12-13T08:49:04.849Z,22.02
2022-12-13T08:50:10.748Z,24.58
2022-12-13T08:51:24.706Z,22.95
2022-12-13T08:52:31.221Z,22.25
2022-12-13T08:53:40.712Z,23.23
2022-12-13T08:54:44.867Z,20.30
2022-12-13T08:55:49.963Z,22.05
2022-12-13T08:56:54.732Z,23.75
2022-12-13T08:58:02.353Z,19.92
2022-12-13T08:59:09.785Z,22.42
2022-12-13T09:00:18.009Z,20.40
2022-12-13T09:01:22.984Z,23.23
2022-12-13T09:02:27.976Z,23.45
2022-12-13T09:03:32.908Z,22.83
2022-12-13T09:04:37.595Z,22.08
2022-12-13T09:05:42.614Z,25.33
2022-12-13T09:06:47.453Z,22.30
2022-12-13T09:07:52.144Z,24.92
2022-12-13T09:08:57.312Z,21.13
2022-12-13T09:10:07.019Z,23.45
2022-12-13T09:11:36.405Z,21.33
2022-12-13T09:12:46.294Z,26.20
2022-12-13T09:13:52.351Z,21.45
2022-12-13T09:15:22.226Z,20.50
2022-12-13T09:16:29.207Z,16.33
2022-12-13T09:17:41.238Z,22.20
2022-12-13T09:18:46.443Z,21.05
2022-12-13T09:20:02.879Z,18.75
2022-12-13T09:21:22.305Z,17.00
2022-12-13T09:23:01.871Z,16.95
2022-12-13T09:24:37.247Z,18.63
2022-12-13T09:26:18.351Z,21.88
2022-12-13T09:28:02.671Z,25.85
2022-12-13T09:30:54.467Z,20.20
2022-12-13T09:32:29.738Z,14.65
2022-12-13T09:40:25.965Z,16.35
2022-12-13T09:42:10.595Z,14.10
2022-12-13T09:43:43.298Z,15.10
2022-12-13T09:45:02.190Z,16.45
2022-12-13T09:46:44.915Z,16.15
2022-12-13T09:47:52.294Z,18.33
2022-12-13T09:49:13.311Z,16.23
2022-12-13T09:50:25.563Z,16.65
2022-12-13T09:51:43.123Z,18.02
2022-12-13T09:52:50.323Z,15.98
2022-12-13T09:53:57.453Z,17.25
2022-12-13T09:55:04.393Z,16.48
2022-12-13T09:56:13.081Z,13.77
2022-12-13T09:57:34.911Z,14.85
2022-12-13T09:58:42.730Z,19.38
2022-12-13T09:59:47.992Z,20.67
2022-12-13T10:01:00.101Z,18.83
2022-12-13T10:02:28.960Z,18.08
2022-12-13T10:03:34.914Z,15.82
2022-12-13T10:04:42.281Z,20.80
2022-12-13T10:05:50.902Z,20.95
2022-12-13T10:06:59.027Z,25.00
2022-12-13T10:08:08.901Z,21.73
2022-12-13T10:09:16.909Z,23.85
2022-12-13T10:10:23.325Z,20.85
2022-12-13T10:11:32.237Z,15.23
2022-12-13T10:12:37.843Z,18.27
2022-12-13T10:13:45.927Z,18.83
2022-12-13T10:14:54.732Z,14.45
2022-12-13T10:16:04.095Z,19.15
2022-12-13T10:17:20.834Z,17.25
2022-12-13T10:18:34.329Z,16.25
2022-12-13T10:19:42.816Z,16.05
2022-12-13T10:20:47.739Z,20.95
2022-12-13T10:21:51.695Z,23.52
2022-12-13T10:23:31.612Z,21.02
2022-12-13T10:24:31.505Z,16.77
2022-12-13T10:26:03.786Z,15.60
2022-12-13T10:27:16.905Z,14.68
2022-12-13T10:28:27.328Z,15.30
2022-12-13T10:29:32.061Z,14.43
2022-12-13T10:30:46.197Z,14.68
2022-12-13T10:31:54.356Z,16.20
2022-12-13T10:33:03.862Z,14.30
2022-12-13T10:34:08.978Z,14.98
2022-12-13T10:35:29.162Z,13.27
2022-12-13T10:36:38.592Z,15.13
2022-12-13T10:37:43.717Z,14.07
2022-12-13T10:38:49.479Z,15.15
2022-12-13T10:39:51.587Z,16.60
2022-12-13T10:40:56.666Z,15.48
2022-12-13T10:42:07.689Z,14.05
2022-12-13T10:43:17.410Z,15.77
2022-12-13T10:44:22.823Z,15.05
2022-12-13T10:45:28.065Z,12.90
2022-12-13T10:46:38.530Z,20.58
2022-12-13T10:47:48.897Z,15.85
2022-12-13T10:48:56.359Z,13.80
2022-12-13T10:50:02.525Z,17.25
2022-12-13T10:51:09.789Z,16.95
2022-12-13T10:52:31.533Z,14.10
2022-12-13T10:53:47.361Z,16.30
2022-12-13T10:54:53.680Z,14.95
2022-12-13T10:56:07.087Z,17.60
2022-12-13T10:57:14.667Z,18.50
2022-12-13T10:58:22.487Z,17.52
2022-12-13T10:59:30.385Z,16.65
2022-12-13T11:00:39.734Z,17.60
2022-12-13T11:03:36.797Z,11.00
2022-12-13T11:04:44.697Z,11.90
2022-12-13T11:05:51.245Z,12.95
2022-12-13T11:06:56.409Z,14.98
2022-12-13T11:08:16.692Z,15.43
2022-12-13T11:09:26.971Z,11.07
2022-12-13T11:10:32.551Z,13.27
2022-12-13T11:11:37.331Z,12.60
2022-12-13T11:12:43.456Z,14.40
2022-12-13T11:13:50.475Z,16.17
2022-12-13T11:14:59.606Z,13.75
2022-12-13T11:16:02.324Z,14.10
2022-12-13T11:17:12.405Z,13.05
2022-12-13T11:18:25.177Z,14.35
2022-12-13T11:19:39.349Z,14.48
2022-12-13T11:20:59.601Z,15.13
2022-12-13T11:22:04.626Z,13.82
2022-12-13T11:23:19.275Z,12.55
2022-12-13T11:24:28.216Z,11.55
2022-12-13T11:25:38.720Z,11.02
2022-12-13T11:26:48.780Z,11.32
2022-12-13T11:28:06.116Z,12.02
2022-12-13T11:29:51.377Z,11.48
2022-12-13T11:31:07.309Z,11.40
2022-12-13T11:32:22.894Z,11.15
2022-12-13T11:33:48.016Z,12.82
2022-12-13T11:35:02.869Z,10.18
2022-12-13T11:36:22.183Z,11.27
2022-12-13T11:37:31.954Z,13.20
2022-12-13T11:38:57.647Z,13.35
2022-12-13T11:40:08.221Z,13.98
2022-12-13T11:41:31.473Z,15.20
2022-12-13T11:42:44.384Z,13.00
2022-12-13T11:43:58.199Z,20.65
2022-12-13T11:45:23.164Z,11.82
2022-12-13T11:46:38.502Z,19.48
2022-12-13T11:47:49.285Z,17.80
2022-12-13T11:48:59.327Z,19.25
2022-12-13T11:50:08.541Z,19.27
2022-12-13T11:51:22.685Z,19.50
2022-12-13T11:52:32.094Z,11.55
2022-12-13T11:53:42.602Z,13.98
2022-12-13T11:54:54.532Z,16.20
2022-12-13T11:56:06.433Z,13.13
2022-12-13T11:57:20.810Z,16.48
2022-12-13T11:59:01.193Z,11.85
2022-12-13T12:00:02.651Z,13.45
2022-12-13T12:01:13.716Z,12.18
2022-12-13T12:02:26.092Z,12.77
2022-12-13T12:03:40.299Z,14.02
2022-12-13T12:04:56.598Z,14.43
2022-12-13T12:06:12.372Z,15.25
2022-12-13T12:07:32.930Z,16.60
2022-12-13T12:08:44.250Z,16.33
2022-12-13T12:09:57.016Z,13.60
2022-12-13T12:11:11.134Z,12.63
2022-12-13T12:12:21.983Z,13.77
2022-12-13T12:13:33.506Z,15.48
2022-12-13T12:14:44.699Z,13.13
2022-12-13T12:15:55.465Z,18.50
2022-12-13T12:17:02.047Z,13.10
2022-12-13T12:18:04.380Z,12.93
2022-12-13T12:19:16.210Z,14.68
2022-12-13T12:20:28.638Z,15.13
2022-12-13T12:22:12.819Z,14.88
2022-12-13T12:23:25.853Z,13.10
2022-12-13T12:24:40.303Z,14.48
2022-12-13T12:25:52.058Z,17.10
2022-12-13T12:27:09.692Z,14.68
2022-12-13T12:28:28.874Z,18.77
2022-12-13T12:30:03.467Z,13.82
2022-12-13T12:31:18.531Z,15.32
2022-12-13T12:32:36.430Z,15.73
2022-12-13T12:36:28.515Z,14.35
2022-12-13T12:37:54.689Z,13.77
2022-12-13T12:42:03.528Z,14.13
2022-12-13T12:43:43.095Z,13.25
2022-12-13T12:46:01.020Z,13.43
2022-12-13T12:49:12.432Z,15.57
2022-12-13T12:50:35.898Z,12.13
2022-12-13T12:51:50.845Z,13.32
2022-12-13T12:53:05.065Z,11.73
2022-12-13T12:54:37.836Z,12.38
2022-12-13T12:56:27.883Z,11.85
2022-12-13T12:58:32.213Z,11.75
2022-12-13T13:00:14.552Z,11.40
2022-12-13T13:01:54.746Z,10.57
2022-12-13T13:03:54.293Z,12.85
2022-12-13T13:05:33.793Z,10.85
2022-12-13T13:07:40.455Z,11.98
2022-12-13T13:09:10.336Z,11.40
2022-12-13T13:13:33.407Z,13.38
2022-12-13T13:17:58.210Z,16.67
2022-12-13T13:22:03.073Z,10.30
2022-12-13T13:23:40.564Z,13.32
2022-12-13T13:24:42.516Z,16.00
2022-12-13T13:27:34.259Z,10.77
2022-12-13T13:28:41.954Z,11.98
2022-12-13T13:29:48.404Z,12.63
2022-12-13T13:31:13.447Z,12.40
2022-12-13T13:32:34.503Z,11.60
2022-12-13T13:33:56.582Z,12.93
2022-12-13T13:35:31.931Z,12.00
2022-12-13T13:36:52.824Z,12.30
2022-12-13T13:38:00.346Z,12.57
2022-12-13T13:39:19.708Z,12.95
2022-12-13T13:40:34.788Z,12.60
2022-12-13T13:41:44.585Z,13.13
2022-12-13T13:43:16.318Z,19.83
2022-12-13T13:44:53.423Z,15.88
2022-12-13T13:46:10.973Z,14.52
2022-12-13T13:47:14.880Z,16.02
2022-12-13T13:48:36.972Z,17.42
2022-12-13T13:49:44.192Z,16.55
2022-12-13T13:51:12.825Z,16.50
2022-12-13T13:52:25.270Z,16.17
2022-12-13T13:53:56.536Z,14.82
2022-12-13T13:55:38.897Z,16.02
2022-12-13T13:57:12.714Z,19.50
2022-12-13T13:58:58.185Z,20.40
2022-12-13T14:00:21.496Z,21.98
2022-12-13T14:02:02.940Z,19.45
2022-12-13T14:03:54.079Z,22.95
2022-12-13T14:05:43.417Z,21.08
2022-12-13T14:07:26.629Z,19.30
2022-12-13T14:08:45.402Z,14.40
2022-12-13T14:10:17.592Z,17.17
2022-12-13T14:13:20.600Z,22.55
2022-12-13T14:15:09.775Z,15.80
2022-12-13T14:16:57.200Z,23.83
2022-12-13T14:18:52.845Z,21.45
2022-12-13T14:20:24.595Z,17.90
2022-12-13T14:21:52.807Z,19.88
2022-12-13T14:23:04.468Z,16.63
2022-12-13T14:24:29.525Z,18.67
2022-12-13T14:25:52.801Z,23.55
2022-12-13T14:27:13.356Z,17.67
2022-12-13T14:28:26.160Z,18.52
2022-12-13T14:29:34.728Z,16.92
2022-12-13T14:30:48.073Z,18.27
2022-12-13T14:32:02.741Z,15.82
2022-12-13T14:33:07.590Z,24.77
2022-12-13T14:34:23.968Z,17.90
2022-12-13T14:35:32.715Z,15.23
2022-12-13T14:36:42.979Z,17.83
2022-12-13T14:37:59.799Z,19.75
2022-12-13T14:39:25.041Z,19.67
2022-12-13T14:40:34.608Z,15.75
2022-12-13T14:41:48.563Z,18.15
2022-12-13T14:43:05.288Z,16.27
2022-12-13T14:44:25.724Z,15.25
2022-12-13T14:45:32.977Z,17.23
2022-12-13T14:46:35.184Z,16.35
2022-12-13T14:47:43.087Z,15.60
2022-12-13T14:48:52.409Z,17.73
2022-12-13T14:50:01.408Z,17.40
2022-12-13T14:51:07.495Z,17.95
2022-12-13T14:52:26.142Z,18.58
2022-12-13T14:53:37.857Z,17.80
2022-12-13T14:54:51.788Z,16.05
2022-12-13T14:56:11.539Z,16.65
2022-12-13T14:57:35.467Z,16.60
2022-12-13T14:58:52.625Z,16.35
2022-12-13T14:59:59.075Z,15.55
2022-12-13T15:01:04.131Z,18.08
2022-12-13T15:02:09.273Z,13.75
2022-12-13T15:03:25.923Z,17.58
2022-12-13T15:04:33.066Z,17.48
2022-12-13T15:05:51.045Z,15.80
2022-12-13T15:06:59.919Z,14.20
2022-12-13T15:08:10.515Z,16.35
2022-12-13T15:10:25.386Z,15.90
2022-12-13T15:11:33.505Z,15.00
2022-12-13T15:12:38.529Z,16.15
2022-12-13T15:13:47.678Z,17.15
2022-12-13T15:14:55.929Z,16.88
2022-12-13T15:16:10.744Z,15.90
2022-12-13T15:17:30.834Z,18.20
2022-12-13T15:18:36.430Z,16.92
2022-12-13T15:19:48.910Z,17.15
2022-12-13T15:20:56.140Z,16.55
2022-12-13T15:22:04.150Z,17.83
2022-12-13T15:23:15.861Z,17.52
2022-12-13T15:24:29.526Z,16.90
2022-12-13T15:25:36.884Z,17.88
2022-12-13T15:26:43.374Z,18.83
2022-12-13T15:27:52.029Z,18.50
2022-12-13T15:29:01.463Z,18.10
2022-12-13T15:30:17.088Z,19.67
2022-12-13T15:31:22.618Z,15.77
2022-12-13T15:32:27.406Z,14.63
2022-12-13T15:33:36.815Z,20.90
2022-12-13T15:34:44.154Z,15.50
2022-12-13T15:35:50.824Z,17.60
2022-12-13T15:36:55.720Z,16.83
2022-12-13T15:38:00.901Z,17.35
2022-12-13T15:39:05.998Z,18.45
2022-12-13T15:40:12.755Z,17.63
2022-12-13T15:41:20.752Z,19.75
2022-12-13T15:42:28.798Z,21.98
2022-12-13T15:43:39.313Z,19.88
2022-12-13T15:44:50.570Z,17.30
2022-12-13T15:45:56.504Z,19.83
2022-12-13T15:47:05.782Z,18.90
2022-12-13T15:48:25.137Z,19.65
2022-12-13T15:49:34.640Z,17.10
2022-12-13T15:50:47.145Z,18.98
2022-12-13T15:51:58.568Z,19.08
2022-12-13T15:53:06.568Z,18.55
2022-12-13T15:54:22.840Z,18.05
2022-12-13T15:55:44.003Z,16.92
2022-12-13T15:57:06.073Z,15.32
2022-12-13T15:58:28.665Z,22.83
2022-12-13T15:59:38.373Z,18.20
2022-12-13T16:00:51.818Z,17.88
2022-12-13T16:01:58.643Z,15.95
2022-12-13T16:03:10.377Z,15.75
2022-12-13T16:04:25.297Z,18.58
2022-12-13T16:05:34.344Z,16.35
2022-12-13T16:10:26.808Z,21.33
2022-12-13T16:11:35.361Z,15.25
2022-12-13T16:12:53.445Z,16.77
2022-12-13T16:14:30.920Z,18.02
2022-12-13T16:15:59.753Z,16.95
2022-12-13T16:18:57.791Z,17.00
2022-12-13T16:20:06.012Z,16.08
2022-12-13T16:22:22.037Z,15.80
2022-12-13T16:23:27.860Z,14.82